sensor_id;sensor_type;location;lat;lon;timestamp;temperature;humidity
65378;SHT31;51982;51.042;13.806;2023-08-08T00:01:01;16.54;79.48
65378;SHT31;51982;51.042;13.806;2023-08-08T00:03:27;16.51;79.69
65378;SHT31;51982;51.042;13.806;2023-08-08T00:05:52;16.48;79.40
65378;SHT31;51982;51.042;13.806;2023-08-08T00:08:17;16.50;79.45
65378;SHT31;51982;51.042;13.806;2023-08-08T00:10:43;16.50;79.55
65378;SHT31;51982;51.042;13.806;2023-08-08T00:13:08;16.47;79.41
65378;SHT31;51982;51.042;13.806;2023-08-08T00:15:33;16.41;79.44
65378;SHT31;51982;51.042;13.806;2023-08-08T00:17:58;16.41;79.36
65378;SHT31;51982;51.042;13.806;2023-08-08T00:20:24;16.40;79.42
65378;SHT31;51982;51.042;13.806;2023-08-08T00:22:49;16.40;79.23
65378;SHT31;51982;51.042;13.806;2023-08-08T00:25:14;16.40;79.29
65378;SHT31;51982;51.042;13.806;2023-08-08T00:27:40;16.38;79.16
65378;SHT31;51982;51.042;13.806;2023-08-08T00:30:10;16.31;79.10
65378;SHT31;51982;51.042;13.806;2023-08-08T00:32:35;16.28;78.78
65378;SHT31;51982;51.042;13.806;2023-08-08T00:35:01;16.33;79.21
65378;SHT31;51982;51.042;13.806;2023-08-08T00:37:26;16.31;78.88
65378;SHT31;51982;51.042;13.806;2023-08-08T00:39:51;16.27;78.55
65378;SHT31;51982;51.042;13.806;2023-08-08T00:42:16;16.28;78.79
65378;SHT31;51982;51.042;13.806;2023-08-08T00:44:42;16.31;79.04
65378;SHT31;51982;51.042;13.806;2023-08-08T00:47:08;16.36;79.24
65378;SHT31;51982;51.042;13.806;2023-08-08T00:49:34;16.37;79.10
65378;SHT31;51982;51.042;13.806;2023-08-08T00:52:00;16.36;79.13
65378;SHT31;51982;51.042;13.806;2023-08-08T00:54:26;16.34;79.03
65378;SHT31;51982;51.042;13.806;2023-08-08T00:56:51;16.34;79.08
65378;SHT31;51982;51.042;13.806;2023-08-08T00:59:18;16.33;79.17
65378;SHT31;51982;51.042;13.806;2023-08-08T01:01:43;16.36;79.07
65378;SHT31;51982;51.042;13.806;2023-08-08T01:04:09;16.38;79.01
65378;SHT31;51982;51.042;13.806;2023-08-08T01:06:43;16.28;79.22
65378;SHT31;51982;51.042;13.806;2023-08-08T01:09:32;16.31;79.15
65378;SHT31;51982;51.042;13.806;2023-08-08T01:11:59;16.34;79.18
65378;SHT31;51982;51.042;13.806;2023-08-08T01:14:26;16.30;79.01
65378;SHT31;51982;51.042;13.806;2023-08-08T01:16:55;16.27;78.84
65378;SHT31;51982;51.042;13.806;2023-08-08T01:19:25;16.24;79.00
65378;SHT31;51982;51.042;13.806;2023-08-08T01:21:53;16.28;78.91
65378;SHT31;51982;51.042;13.806;2023-08-08T01:24:23;16.21;79.07
65378;SHT31;51982;51.042;13.806;2023-08-08T01:26:50;16.23;78.89
65378;SHT31;51982;51.042;13.806;2023-08-08T01:29:16;16.18;78.85
65378;SHT31;51982;51.042;13.806;2023-08-08T01:31:41;16.17;78.76
65378;SHT31;51982;51.042;13.806;2023-08-08T01:34:07;16.14;78.87
65378;SHT31;51982;51.042;13.806;2023-08-08T01:36:38;16.10;79.05
65378;SHT31;51982;51.042;13.806;2023-08-08T01:39:06;16.10;78.92
65378;SHT31;51982;51.042;13.806;2023-08-08T01:41:36;16.10;78.98
65378;SHT31;51982;51.042;13.806;2023-08-08T01:44:03;16.12;78.89
65378;SHT31;51982;51.042;13.806;2023-08-08T01:46:29;16.10;78.87
65378;SHT31;51982;51.042;13.806;2023-08-08T01:48:57;16.07;79.05
65378;SHT31;51982;51.042;13.806;2023-08-08T01:51:23;16.09;78.98
65378;SHT31;51982;51.042;13.806;2023-08-08T01:53:50;16.06;78.53
65378;SHT31;51982;51.042;13.806;2023-08-08T01:56:16;16.02;78.75
65378;SHT31;51982;51.042;13.806;2023-08-08T01:58:41;16.07;78.76
65378;SHT31;51982;51.042;13.806;2023-08-08T02:01:06;16.05;78.72
65378;SHT31;51982;51.042;13.806;2023-08-08T02:03:31;16.06;78.78
65378;SHT31;51982;51.042;13.806;2023-08-08T02:05:57;16.07;78.70
65378;SHT31;51982;51.042;13.806;2023-08-08T02:08:22;16.02;78.43
65378;SHT31;51982;51.042;13.806;2023-08-08T02:10:47;16.00;78.51
65378;SHT31;51982;51.042;13.806;2023-08-08T02:13:12;15.99;78.56
65378;SHT31;51982;51.042;13.806;2023-08-08T02:15:38;16.00;78.68
65378;SHT31;51982;51.042;13.806;2023-08-08T02:18:03;15.96;78.50
65378;SHT31;51982;51.042;13.806;2023-08-08T02:20:29;15.90;78.42
65378;SHT31;51982;51.042;13.806;2023-08-08T02:22:54;15.92;78.33
65378;SHT31;51982;51.042;13.806;2023-08-08T02:25:20;15.86;78.44
65378;SHT31;51982;51.042;13.806;2023-08-08T02:27:45;15.86;78.38
65378;SHT31;51982;51.042;13.806;2023-08-08T02:30:11;15.87;78.36
65378;SHT31;51982;51.042;13.806;2023-08-08T02:32:36;15.85;78.55
65378;SHT31;51982;51.042;13.806;2023-08-08T02:35:01;15.85;78.37
65378;SHT31;51982;51.042;13.806;2023-08-08T02:37:27;15.82;78.28
65378;SHT31;51982;51.042;13.806;2023-08-08T02:39:52;15.82;78.26
65378;SHT31;51982;51.042;13.806;2023-08-08T02:42:17;15.81;78.47
65378;SHT31;51982;51.042;13.806;2023-08-08T02:44:42;15.79;78.34
65378;SHT31;51982;51.042;13.806;2023-08-08T02:47:08;15.79;78.33
65378;SHT31;51982;51.042;13.806;2023-08-08T02:49:33;15.75;78.29
65378;SHT31;51982;51.042;13.806;2023-08-08T02:52:00;15.73;78.38
65378;SHT31;51982;51.042;13.806;2023-08-08T02:54:25;15.76;78.29
65378;SHT31;51982;51.042;13.806;2023-08-08T02:56:50;15.72;78.27
65378;SHT31;51982;51.042;13.806;2023-08-08T02:59:16;15.73;78.30
65378;SHT31;51982;51.042;13.806;2023-08-08T03:01:41;15.72;78.34
65378;SHT31;51982;51.042;13.806;2023-08-08T03:04:06;15.66;78.12
65378;SHT31;51982;51.042;13.806;2023-08-08T03:06:32;15.62;78.22
65378;SHT31;51982;51.042;13.806;2023-08-08T03:08:57;15.61;78.28
65378;SHT31;51982;51.042;13.806;2023-08-08T03:11:22;15.62;78.45
65378;SHT31;51982;51.042;13.806;2023-08-08T03:13:48;15.56;78.22
65378;SHT31;51982;51.042;13.806;2023-08-08T03:16:13;15.58;78.32
65378;SHT31;51982;51.042;13.806;2023-08-08T03:18:38;15.62;78.35
65378;SHT31;51982;51.042;13.806;2023-08-08T03:21:04;15.59;78.34
65378;SHT31;51982;51.042;13.806;2023-08-08T03:23:29;15.56;78.26
65378;SHT31;51982;51.042;13.806;2023-08-08T03:25:54;15.58;78.38
65378;SHT31;51982;51.042;13.806;2023-08-08T03:28:20;15.54;78.24
65378;SHT31;51982;51.042;13.806;2023-08-08T03:30:45;15.55;78.31
65378;SHT31;51982;51.042;13.806;2023-08-08T03:33:10;15.52;78.20
65378;SHT31;51982;51.042;13.806;2023-08-08T03:35:35;15.48;78.24
65378;SHT31;51982;51.042;13.806;2023-08-08T03:38:01;15.51;78.33
65378;SHT31;51982;51.042;13.806;2023-08-08T03:40:27;15.49;78.24
65378;SHT31;51982;51.042;13.806;2023-08-08T03:42:53;15.46;78.25
65378;SHT31;51982;51.042;13.806;2023-08-08T03:45:18;15.46;78.36
65378;SHT31;51982;51.042;13.806;2023-08-08T03:47:43;15.49;78.42
65378;SHT31;51982;51.042;13.806;2023-08-08T03:50:09;15.49;78.48
65378;SHT31;51982;51.042;13.806;2023-08-08T03:52:35;15.51;78.32
65378;SHT31;51982;51.042;13.806;2023-08-08T03:55:03;15.45;78.25
65378;SHT31;51982;51.042;13.806;2023-08-08T03:57:28;15.49;78.43
65378;SHT31;51982;51.042;13.806;2023-08-08T03:59:53;15.46;78.40
65378;SHT31;51982;51.042;13.806;2023-08-08T04:02:19;15.52;78.41
65378;SHT31;51982;51.042;13.806;2023-08-08T04:04:44;15.48;78.41
65378;SHT31;51982;51.042;13.806;2023-08-08T04:07:09;15.44;78.31
65378;SHT31;51982;51.042;13.806;2023-08-08T04:09:35;15.44;78.38
65378;SHT31;51982;51.042;13.806;2023-08-08T04:12:00;15.46;78.45
65378;SHT31;51982;51.042;13.806;2023-08-08T04:14:25;15.46;78.31
65378;SHT31;51982;51.042;13.806;2023-08-08T04:16:50;15.48;78.36
65378;SHT31;51982;51.042;13.806;2023-08-08T04:19:16;15.49;78.39
65378;SHT31;51982;51.042;13.806;2023-08-08T04:21:41;15.52;78.53
65378;SHT31;51982;51.042;13.806;2023-08-08T04:24:06;15.49;78.46
65378;SHT31;51982;51.042;13.806;2023-08-08T04:26:33;15.46;78.44
65378;SHT31;51982;51.042;13.806;2023-08-08T04:28:58;15.52;78.52
65378;SHT31;51982;51.042;13.806;2023-08-08T04:31:23;15.55;78.69
65378;SHT31;51982;51.042;13.806;2023-08-08T04:33:51;15.56;78.60
65378;SHT31;51982;51.042;13.806;2023-08-08T04:36:16;15.58;78.62
65378;SHT31;51982;51.042;13.806;2023-08-08T04:38:42;15.62;78.63
65378;SHT31;51982;51.042;13.806;2023-08-08T04:41:07;15.66;78.43
65378;SHT31;51982;51.042;13.806;2023-08-08T04:43:32;15.67;78.43
65378;SHT31;51982;51.042;13.806;2023-08-08T04:45:58;15.67;78.36
65378;SHT31;51982;51.042;13.806;2023-08-08T04:48:23;15.69;78.37
65378;SHT31;51982;51.042;13.806;2023-08-08T04:50:48;15.69;78.27
65378;SHT31;51982;51.042;13.806;2023-08-08T04:53:13;15.65;78.18
65378;SHT31;51982;51.042;13.806;2023-08-08T04:55:39;15.67;78.29
65378;SHT31;51982;51.042;13.806;2023-08-08T04:58:04;15.67;78.24
65378;SHT31;51982;51.042;13.806;2023-08-08T05:00:30;15.69;78.21
65378;SHT31;51982;51.042;13.806;2023-08-08T05:02:55;15.73;78.38
65378;SHT31;51982;51.042;13.806;2023-08-08T05:05:20;15.67;78.45
65378;SHT31;51982;51.042;13.806;2023-08-08T05:07:45;15.69;78.44
65378;SHT31;51982;51.042;13.806;2023-08-08T05:10:11;15.69;78.39
65378;SHT31;51982;51.042;13.806;2023-08-08T05:12:36;15.66;78.48
65378;SHT31;51982;51.042;13.806;2023-08-08T05:15:01;15.69;78.68
65378;SHT31;51982;51.042;13.806;2023-08-08T05:17:29;15.70;78.66
65378;SHT31;51982;51.042;13.806;2023-08-08T05:19:55;15.73;78.65
65378;SHT31;51982;51.042;13.806;2023-08-08T05:22:20;15.73;78.49
65378;SHT31;51982;51.042;13.806;2023-08-08T05:24:45;15.75;78.41
65378;SHT31;51982;51.042;13.806;2023-08-08T05:27:10;15.76;78.50
65378;SHT31;51982;51.042;13.806;2023-08-08T05:29:36;15.82;78.54
65378;SHT31;51982;51.042;13.806;2023-08-08T05:32:03;15.87;78.48
65378;SHT31;51982;51.042;13.806;2023-08-08T05:34:31;15.89;78.30
65378;SHT31;51982;51.042;13.806;2023-08-08T05:36:57;15.99;78.43
65378;SHT31;51982;51.042;13.806;2023-08-08T05:39:22;16.10;78.12
65378;SHT31;51982;51.042;13.806;2023-08-08T05:41:47;16.17;78.45
65378;SHT31;51982;51.042;13.806;2023-08-08T05:44:15;16.21;77.99
65378;SHT31;51982;51.042;13.806;2023-08-08T05:46:43;16.30;78.19
65378;SHT31;51982;51.042;13.806;2023-08-08T05:49:09;16.33;77.60
65378;SHT31;51982;51.042;13.806;2023-08-08T05:51:36;16.34;77.90
65378;SHT31;51982;51.042;13.806;2023-08-08T05:54:02;16.36;77.29
65378;SHT31;51982;51.042;13.806;2023-08-08T05:56:34;16.34;77.84
65378;SHT31;51982;51.042;13.806;2023-08-08T05:59:01;16.40;77.47
65378;SHT31;51982;51.042;13.806;2023-08-08T06:01:26;16.41;77.39
65378;SHT31;51982;51.042;13.806;2023-08-08T06:03:51;16.37;77.47
65378;SHT31;51982;51.042;13.806;2023-08-08T06:06:18;16.37;77.11
65378;SHT31;51982;51.042;13.806;2023-08-08T06:08:43;16.43;77.22
65378;SHT31;51982;51.042;13.806;2023-08-08T06:11:09;16.48;77.41
65378;SHT31;51982;51.042;13.806;2023-08-08T06:13:36;16.48;77.64
65378;SHT31;51982;51.042;13.806;2023-08-08T06:16:01;16.51;77.65
65378;SHT31;51982;51.042;13.806;2023-08-08T06:18:31;16.53;77.48
65378;SHT31;51982;51.042;13.806;2023-08-08T06:20:57;16.51;77.08
65378;SHT31;51982;51.042;13.806;2023-08-08T06:23:22;16.56;77.20
65378;SHT31;51982;51.042;13.806;2023-08-08T06:25:47;16.56;77.16
65378;SHT31;51982;51.042;13.806;2023-08-08T06:28:13;16.57;77.35
65378;SHT31;51982;51.042;13.806;2023-08-08T06:30:38;16.60;77.41
65378;SHT31;51982;51.042;13.806;2023-08-08T06:33:03;16.63;77.40
65378;SHT31;51982;51.042;13.806;2023-08-08T06:35:29;16.63;77.43
65378;SHT31;51982;51.042;13.806;2023-08-08T06:37:54;16.64;77.09
65378;SHT31;51982;51.042;13.806;2023-08-08T06:40:19;16.64;77.48
65378;SHT31;51982;51.042;13.806;2023-08-08T06:42:44;16.65;77.65
65378;SHT31;51982;51.042;13.806;2023-08-08T06:45:10;16.68;77.51
65378;SHT31;51982;51.042;13.806;2023-08-08T06:47:35;16.67;77.55
65378;SHT31;51982;51.042;13.806;2023-08-08T06:50:00;16.69;77.55
65378;SHT31;51982;51.042;13.806;2023-08-08T06:52:26;16.67;77.18
65378;SHT31;51982;51.042;13.806;2023-08-08T06:54:51;16.69;77.13
65378;SHT31;51982;51.042;13.806;2023-08-08T06:57:16;16.69;77.23
65378;SHT31;51982;51.042;13.806;2023-08-08T06:59:42;16.71;76.79
65378;SHT31;51982;51.042;13.806;2023-08-08T07:02:07;16.71;76.86
65378;SHT31;51982;51.042;13.806;2023-08-08T07:04:32;16.71;76.84
65378;SHT31;51982;51.042;13.806;2023-08-08T07:06:58;16.74;76.89
65378;SHT31;51982;51.042;13.806;2023-08-08T07:09:23;16.77;77.05
65378;SHT31;51982;51.042;13.806;2023-08-08T07:11:48;16.74;77.01
65378;SHT31;51982;51.042;13.806;2023-08-08T07:14:14;16.74;76.58
65378;SHT31;51982;51.042;13.806;2023-08-08T07:16:39;16.69;76.62
65378;SHT31;51982;51.042;13.806;2023-08-08T07:19:04;16.74;76.72
65378;SHT31;51982;51.042;13.806;2023-08-08T07:21:31;16.74;76.94
65378;SHT31;51982;51.042;13.806;2023-08-08T07:23:56;16.75;76.69
65378;SHT31;51982;51.042;13.806;2023-08-08T07:26:22;16.79;76.70
65378;SHT31;51982;51.042;13.806;2023-08-08T07:28:48;16.84;76.57
65378;SHT31;51982;51.042;13.806;2023-08-08T07:31:13;16.87;76.44
65378;SHT31;51982;51.042;13.806;2023-08-08T07:33:39;16.94;76.78
65378;SHT31;51982;51.042;13.806;2023-08-08T07:36:04;16.98;76.65
65378;SHT31;51982;51.042;13.806;2023-08-08T07:38:30;17.02;76.83
65378;SHT31;51982;51.042;13.806;2023-08-08T07:40:55;17.09;76.87
65378;SHT31;51982;51.042;13.806;2023-08-08T07:43:21;17.19;77.81
65378;SHT31;51982;51.042;13.806;2023-08-08T07:45:46;17.25;76.87
65378;SHT31;51982;51.042;13.806;2023-08-08T07:48:11;17.33;76.95
65378;SHT31;51982;51.042;13.806;2023-08-08T07:50:37;17.79;78.64
65378;SHT31;51982;51.042;13.806;2023-08-08T07:53:02;17.98;78.21
65378;SHT31;51982;51.042;13.806;2023-08-08T07:55:28;17.97;77.74
65378;SHT31;51982;51.042;13.806;2023-08-08T07:57:53;17.96;76.78
65378;SHT31;51982;51.042;13.806;2023-08-08T08:00:18;17.94;76.52
65378;SHT31;51982;51.042;13.806;2023-08-08T08:02:44;17.90;76.21
65378;SHT31;51982;51.042;13.806;2023-08-08T08:05:10;17.93;76.38
65378;SHT31;51982;51.042;13.806;2023-08-08T08:07:37;17.97;76.33
65378;SHT31;51982;51.042;13.806;2023-08-08T08:10:03;17.97;76.21
65378;SHT31;51982;51.042;13.806;2023-08-08T08:12:30;17.98;76.15
65378;SHT31;51982;51.042;13.806;2023-08-08T08:14:56;17.98;75.86
65378;SHT31;51982;51.042;13.806;2023-08-08T08:17:21;18.08;76.47
65378;SHT31;51982;51.042;13.806;2023-08-08T08:19:46;18.11;76.39
65378;SHT31;51982;51.042;13.806;2023-08-08T08:22:11;18.14;76.01
65378;SHT31;51982;51.042;13.806;2023-08-08T08:24:37;18.20;75.96
65378;SHT31;51982;51.042;13.806;2023-08-08T08:27:02;18.23;76.05
65378;SHT31;51982;51.042;13.806;2023-08-08T08:29:27;18.25;75.75
65378;SHT31;51982;51.042;13.806;2023-08-08T08:31:53;18.30;75.68
65378;SHT31;51982;51.042;13.806;2023-08-08T08:34:18;18.35;75.32
65378;SHT31;51982;51.042;13.806;2023-08-08T08:36:43;18.34;75.32
65378;SHT31;51982;51.042;13.806;2023-08-08T08:39:08;18.37;75.18
65378;SHT31;51982;51.042;13.806;2023-08-08T08:41:35;18.38;75.25
65378;SHT31;51982;51.042;13.806;2023-08-08T08:44:03;18.40;75.02
65378;SHT31;51982;51.042;13.806;2023-08-08T08:46:29;18.40;75.05
65378;SHT31;51982;51.042;13.806;2023-08-08T08:48:55;18.41;74.58
65378;SHT31;51982;51.042;13.806;2023-08-08T08:51:21;18.45;74.87
65378;SHT31;51982;51.042;13.806;2023-08-08T08:53:47;18.49;74.55
65378;SHT31;51982;51.042;13.806;2023-08-08T08:56:14;18.54;74.77
65378;SHT31;51982;51.042;13.806;2023-08-08T08:58:40;18.58;74.11
65378;SHT31;51982;51.042;13.806;2023-08-08T09:01:07;18.65;74.06
65378;SHT31;51982;51.042;13.806;2023-08-08T09:03:33;18.71;74.31
65378;SHT31;51982;51.042;13.806;2023-08-08T09:05:59;18.69;73.68
65378;SHT31;51982;51.042;13.806;2023-08-08T09:08:25;18.62;73.77
65378;SHT31;51982;51.042;13.806;2023-08-08T09:10:50;18.62;73.72
65378;SHT31;51982;51.042;13.806;2023-08-08T09:13:16;18.62;73.94
65378;SHT31;51982;51.042;13.806;2023-08-08T09:15:41;18.58;74.15
65378;SHT31;51982;51.042;13.806;2023-08-08T09:18:07;18.58;74.13
65378;SHT31;51982;51.042;13.806;2023-08-08T09:20:32;18.48;73.67
65378;SHT31;51982;51.042;13.806;2023-08-08T09:22:57;18.45;74.14
65378;SHT31;51982;51.042;13.806;2023-08-08T09:25:23;18.42;74.20
65378;SHT31;51982;51.042;13.806;2023-08-08T09:27:51;18.40;74.21
65378;SHT31;51982;51.042;13.806;2023-08-08T09:30:17;18.35;74.44
65378;SHT31;51982;51.042;13.806;2023-08-08T09:32:43;18.35;74.46
65378;SHT31;51982;51.042;13.806;2023-08-08T09:35:09;18.31;74.55
65378;SHT31;51982;51.042;13.806;2023-08-08T09:37:35;18.28;74.53
65378;SHT31;51982;51.042;13.806;2023-08-08T09:40:02;18.28;75.25
65378;SHT31;51982;51.042;13.806;2023-08-08T09:42:29;18.28;74.89
65378;SHT31;51982;51.042;13.806;2023-08-08T09:44:56;18.27;74.99
65378;SHT31;51982;51.042;13.806;2023-08-08T09:47:22;18.27;74.81
65378;SHT31;51982;51.042;13.806;2023-08-08T09:49:47;18.25;74.78
65378;SHT31;51982;51.042;13.806;2023-08-08T09:52:13;18.20;74.58
65378;SHT31;51982;51.042;13.806;2023-08-08T09:54:39;18.23;74.96
65378;SHT31;51982;51.042;13.806;2023-08-08T09:57:06;18.25;75.06
65378;SHT31;51982;51.042;13.806;2023-08-08T09:59:32;18.25;74.94
65378;SHT31;51982;51.042;13.806;2023-08-08T10:01:57;18.28;75.08
65378;SHT31;51982;51.042;13.806;2023-08-08T10:04:23;18.38;75.18
65378;SHT31;51982;51.042;13.806;2023-08-08T10:06:49;18.40;75.02
65378;SHT31;51982;51.042;13.806;2023-08-08T10:09:14;18.47;74.87
65378;SHT31;51982;51.042;13.806;2023-08-08T10:11:40;18.45;74.52
65378;SHT31;51982;51.042;13.806;2023-08-08T10:14:09;18.48;74.66
65378;SHT31;51982;51.042;13.806;2023-08-08T10:16:37;18.49;74.44
65378;SHT31;51982;51.042;13.806;2023-08-08T10:19:04;18.55;74.30
65378;SHT31;51982;51.042;13.806;2023-08-08T10:21:34;18.56;74.41
65378;SHT31;51982;51.042;13.806;2023-08-08T10:24:05;18.62;74.19
65378;SHT31;51982;51.042;13.806;2023-08-08T10:26:32;18.69;74.06
65378;SHT31;51982;51.042;13.806;2023-08-08T10:28:58;18.66;73.29
65378;SHT31;51982;51.042;13.806;2023-08-08T10:31:24;18.71;73.47
65378;SHT31;51982;51.042;13.806;2023-08-08T10:34:00;18.73;73.22
65378;SHT31;51982;51.042;13.806;2023-08-08T10:36:26;18.84;72.91
65378;SHT31;51982;51.042;13.806;2023-08-08T10:38:51;18.91;73.39
65378;SHT31;51982;51.042;13.806;2023-08-08T10:41:19;19.00;73.46
65378;SHT31;51982;51.042;13.806;2023-08-08T10:43:53;19.03;73.28
65378;SHT31;51982;51.042;13.806;2023-08-08T10:48:50;19.10;72.85
65378;SHT31;51982;51.042;13.806;2023-08-08T10:51:16;19.09;72.60
65378;SHT31;51982;51.042;13.806;2023-08-08T10:53:43;19.10;72.77
65378;SHT31;51982;51.042;13.806;2023-08-08T10:56:12;19.07;73.03
65378;SHT31;51982;51.042;13.806;2023-08-08T10:58:42;19.07;72.13
65378;SHT31;51982;51.042;13.806;2023-08-08T11:01:11;19.06;72.16
65378;SHT31;51982;51.042;13.806;2023-08-08T11:03:39;19.09;72.07
65378;SHT31;51982;51.042;13.806;2023-08-08T11:06:06;19.12;71.93
65378;SHT31;51982;51.042;13.806;2023-08-08T11:08:32;19.19;71.42
65378;SHT31;51982;51.042;13.806;2023-08-08T11:10:58;19.17;71.46
65378;SHT31;51982;51.042;13.806;2023-08-08T11:13:24;19.20;71.46
65378;SHT31;51982;51.042;13.806;2023-08-08T11:15:49;19.22;71.84
65378;SHT31;51982;51.042;13.806;2023-08-08T11:18:14;19.20;71.55
65378;SHT31;51982;51.042;13.806;2023-08-08T11:20:40;19.22;71.57
65378;SHT31;51982;51.042;13.806;2023-08-08T11:23:05;19.27;71.89
65378;SHT31;51982;51.042;13.806;2023-08-08T11:25:36;19.30;71.45
65378;SHT31;51982;51.042;13.806;2023-08-08T11:28:02;19.40;70.91
65378;SHT31;51982;51.042;13.806;2023-08-08T11:30:30;19.49;70.69
65378;SHT31;51982;51.042;13.806;2023-08-08T11:32:55;19.51;70.69
65378;SHT31;51982;51.042;13.806;2023-08-08T11:35:24;19.53;70.74
65378;SHT31;51982;51.042;13.806;2023-08-08T11:37:54;19.56;71.28
65378;SHT31;51982;51.042;13.806;2023-08-08T11:40:22;19.64;70.74
65378;SHT31;51982;51.042;13.806;2023-08-08T11:42:49;19.66;70.40
65378;SHT31;51982;51.042;13.806;2023-08-08T11:45:16;19.71;70.32
65378;SHT31;51982;51.042;13.806;2023-08-08T11:47:41;19.78;70.46
65378;SHT31;51982;51.042;13.806;2023-08-08T11:50:09;19.81;70.67
65378;SHT31;51982;51.042;13.806;2023-08-08T11:52:35;19.94;70.90
65378;SHT31;51982;51.042;13.806;2023-08-08T11:55:00;19.98;70.55
65378;SHT31;51982;51.042;13.806;2023-08-08T11:57:27;20.01;69.95
65378;SHT31;51982;51.042;13.806;2023-08-08T11:59:57;20.08;70.09
65378;SHT31;51982;51.042;13.806;2023-08-08T12:02:23;20.11;70.28
65378;SHT31;51982;51.042;13.806;2023-08-08T12:04:48;20.15;69.13
65378;SHT31;51982;51.042;13.806;2023-08-08T12:07:14;20.26;69.76
65378;SHT31;51982;51.042;13.806;2023-08-08T12:09:39;20.29;69.07
65378;SHT31;51982;51.042;13.806;2023-08-08T12:12:05;20.33;69.46
65378;SHT31;51982;51.042;13.806;2023-08-08T12:14:37;20.40;68.63
65378;SHT31;51982;51.042;13.806;2023-08-08T12:17:03;20.48;68.72
65378;SHT31;51982;51.042;13.806;2023-08-08T12:19:28;20.53;67.77
65378;SHT31;51982;51.042;13.806;2023-08-08T12:21:54;20.55;68.23
65378;SHT31;51982;51.042;13.806;2023-08-08T12:24:19;20.56;67.36
65378;SHT31;51982;51.042;13.806;2023-08-08T12:26:45;20.62;69.19
65378;SHT31;51982;51.042;13.806;2023-08-08T12:29:10;20.65;69.65
65378;SHT31;51982;51.042;13.806;2023-08-08T12:31:35;20.68;68.29
65378;SHT31;51982;51.042;13.806;2023-08-08T12:34:01;20.62;67.93
65378;SHT31;51982;51.042;13.806;2023-08-08T12:36:26;20.73;68.06
65378;SHT31;51982;51.042;13.806;2023-08-08T12:38:51;20.70;67.35
65378;SHT31;51982;51.042;13.806;2023-08-08T12:41:17;20.69;67.24
65378;SHT31;51982;51.042;13.806;2023-08-08T12:43:43;20.70;67.51
65378;SHT31;51982;51.042;13.806;2023-08-08T12:46:08;20.70;67.37
65378;SHT31;51982;51.042;13.806;2023-08-08T12:48:34;20.68;67.21
65378;SHT31;51982;51.042;13.806;2023-08-08T12:50:59;20.56;67.26
65378;SHT31;51982;51.042;13.806;2023-08-08T12:53:24;20.52;66.98
65378;SHT31;51982;51.042;13.806;2023-08-08T12:55:50;20.49;66.98
65378;SHT31;51982;51.042;13.806;2023-08-08T12:58:17;20.55;66.45
65378;SHT31;51982;51.042;13.806;2023-08-08T13:00:43;20.66;66.17
65378;SHT31;51982;51.042;13.806;2023-08-08T13:03:08;20.72;66.42
65378;SHT31;51982;51.042;13.806;2023-08-08T13:05:34;20.66;65.76
65378;SHT31;51982;51.042;13.806;2023-08-08T13:07:59;20.66;66.03
65378;SHT31;51982;51.042;13.806;2023-08-08T13:10:25;20.66;65.97
65378;SHT31;51982;51.042;13.806;2023-08-08T13:12:50;20.65;66.25
65378;SHT31;51982;51.042;13.806;2023-08-08T13:15:15;20.65;66.04
65378;SHT31;51982;51.042;13.806;2023-08-08T13:17:41;20.62;66.26
65378;SHT31;51982;51.042;13.806;2023-08-08T13:20:06;20.63;66.75
65378;SHT31;51982;51.042;13.806;2023-08-08T13:22:33;20.60;66.66
65378;SHT31;51982;51.042;13.806;2023-08-08T13:24:58;20.62;67.26
65378;SHT31;51982;51.042;13.806;2023-08-08T13:27:23;20.70;67.71
65378;SHT31;51982;51.042;13.806;2023-08-08T13:29:49;20.76;68.19
65378;SHT31;51982;51.042;13.806;2023-08-08T13:32:14;20.79;67.91
65378;SHT31;51982;51.042;13.806;2023-08-08T13:34:39;20.75;67.01
65378;SHT31;51982;51.042;13.806;2023-08-08T13:37:05;20.77;66.29
65378;SHT31;51982;51.042;13.806;2023-08-08T13:39:30;20.77;66.36
65378;SHT31;51982;51.042;13.806;2023-08-08T13:41:55;20.76;66.78
65378;SHT31;51982;51.042;13.806;2023-08-08T13:44:20;20.75;68.21
65378;SHT31;51982;51.042;13.806;2023-08-08T13:46:46;20.66;68.72
65378;SHT31;51982;51.042;13.806;2023-08-08T13:49:11;20.73;70.28
65378;SHT31;51982;51.042;13.806;2023-08-08T13:51:37;20.79;70.79
65378;SHT31;51982;51.042;13.806;2023-08-08T13:54:02;20.87;70.85
65378;SHT31;51982;51.042;13.806;2023-08-08T13:56:27;20.90;70.55
65378;SHT31;51982;51.042;13.806;2023-08-08T13:58:53;20.86;70.40
65378;SHT31;51982;51.042;13.806;2023-08-08T14:01:18;20.82;69.85
65378;SHT31;51982;51.042;13.806;2023-08-08T14:03:44;20.79;69.92
65378;SHT31;51982;51.042;13.806;2023-08-08T14:06:09;20.76;70.53
65378;SHT31;51982;51.042;13.806;2023-08-08T14:08:35;20.75;71.62
65378;SHT31;51982;51.042;13.806;2023-08-08T14:11:00;20.68;71.69
65378;SHT31;51982;51.042;13.806;2023-08-08T14:13:26;20.60;71.46
65378;SHT31;51982;51.042;13.806;2023-08-08T14:15:51;20.62;71.47
65378;SHT31;51982;51.042;13.806;2023-08-08T14:18:17;20.56;70.89
65378;SHT31;51982;51.042;13.806;2023-08-08T14:20:42;20.52;70.53
65378;SHT31;51982;51.042;13.806;2023-08-08T14:23:08;20.55;71.19
65378;SHT31;51982;51.042;13.806;2023-08-08T14:25:33;20.56;70.68
65378;SHT31;51982;51.042;13.806;2023-08-08T14:27:58;20.55;70.74
65378;SHT31;51982;51.042;13.806;2023-08-08T14:30:25;20.55;70.26
65378;SHT31;51982;51.042;13.806;2023-08-08T14:32:53;20.55;70.59
65378;SHT31;51982;51.042;13.806;2023-08-08T14:35:19;20.52;70.74
65378;SHT31;51982;51.042;13.806;2023-08-08T14:37:44;20.53;70.78
65378;SHT31;51982;51.042;13.806;2023-08-08T14:40:10;20.55;71.13
65378;SHT31;51982;51.042;13.806;2023-08-08T14:42:35;20.60;71.37
65378;SHT31;51982;51.042;13.806;2023-08-08T14:45:00;20.62;71.06
65378;SHT31;51982;51.042;13.806;2023-08-08T14:47:26;20.66;70.52
65378;SHT31;51982;51.042;13.806;2023-08-08T14:49:51;20.72;70.49
65378;SHT31;51982;51.042;13.806;2023-08-08T14:52:17;20.80;71.70
65378;SHT31;51982;51.042;13.806;2023-08-08T14:54:42;20.89;71.36
65378;SHT31;51982;51.042;13.806;2023-08-08T14:57:08;20.90;70.89
65378;SHT31;51982;51.042;13.806;2023-08-08T14:59:36;20.90;70.43
65378;SHT31;51982;51.042;13.806;2023-08-08T15:02:02;20.97;70.52
65378;SHT31;51982;51.042;13.806;2023-08-08T15:04:28;20.96;70.22
65378;SHT31;51982;51.042;13.806;2023-08-08T15:06:53;20.97;70.20
65378;SHT31;51982;51.042;13.806;2023-08-08T15:09:18;20.94;70.07